sensor_id;sensor_type;location;lat;lon;timestamp;temperature;humidity
1337;DHT22;662;48.814;9.318;2022-12-18T00:01:23;-4.00;58.30
1337;DHT22;662;48.814;9.318;2022-12-18T00:03:50;-4.00;58.50
1337;DHT22;662;48.814;9.318;2022-12-18T00:06:16;-4.00;58.60
1337;DHT22;662;48.814;9.318;2022-12-18T00:08:42;-4.00;59.20
1337;DHT22;662;48.814;9.318;2022-12-18T00:11:12;-4.00;58.80
1337;DHT22;662;48.814;9.318;2022-12-18T00:13:38;-4.00;58.80
1337;DHT22;662;48.814;9.318;2022-12-18T00:16:09;-4.00;58.80
1337;DHT22;662;48.814;9.318;2022-12-18T00:18:36;-4.00;58.70
1337;DHT22;662;48.814;9.318;2022-12-18T00:21:04;-4.00;58.70
1337;DHT22;662;48.814;9.318;2022-12-18T00:23:31;-4.00;58.70
1337;DHT22;662;48.814;9.318;2022-12-18T00:26:10;-4.00;58.70
1337;DHT22;662;48.814;9.318;2022-12-18T00:28:36;-3.90;58.70
1337;DHT22;662;48.814;9.318;2022-12-18T00:31:11;-4.00;58.70
1337;DHT22;662;48.814;9.318;2022-12-18T00:33:37;-4.00;58.60
1337;DHT22;662;48.814;9.318;2022-12-18T00:36:25;-4.00;58.60
1337;DHT22;662;48.814;9.318;2022-12-18T00:38:50;-4.00;58.40
1337;DHT22;662;48.814;9.318;2022-12-18T00:41:17;-4.00;58.20
1337;DHT22;662;48.814;9.318;2022-12-18T00:44:03;-4.00;58.10
1337;DHT22;662;48.814;9.318;2022-12-18T00:46:29;-4.10;58.00
1337;DHT22;662;48.814;9.318;2022-12-18T00:48:54;-4.10;58.10
1337;DHT22;662;48.814;9.318;2022-12-18T00:51:20;-4.10;58.10
1337;DHT22;662;48.814;9.318;2022-12-18T00:53:46;-4.10;58.00
1337;DHT22;662;48.814;9.318;2022-12-18T00:56:11;-4.10;57.90
1337;DHT22;662;48.814;9.318;2022-12-18T00:58:37;-4.10;58.00
1337;DHT22;662;48.814;9.318;2022-12-18T01:01:06;-4.20;58.00
1337;DHT22;662;48.814;9.318;2022-12-18T01:03:32;-4.20;58.00
1337;DHT22;662;48.814;9.318;2022-12-18T01:05:58;-4.20;58.10
1337;DHT22;662;48.814;9.318;2022-12-18T01:08:24;-4.20;58.10
1337;DHT22;662;48.814;9.318;2022-12-18T01:10:50;-4.20;58.20
1337;DHT22;662;48.814;9.318;2022-12-18T01:13:16;-4.20;58.20
1337;DHT22;662;48.814;9.318;2022-12-18T01:15:49;-4.20;58.20
1337;DHT22;662;48.814;9.318;2022-12-18T01:18:15;-4.20;58.10
1337;DHT22;662;48.814;9.318;2022-12-18T01:20:40;-4.10;58.30
1337;DHT22;662;48.814;9.318;2022-12-18T01:23:06;-4.20;58.20
1337;DHT22;662;48.814;9.318;2022-12-18T01:25:32;-4.20;58.20
1337;DHT22;662;48.814;9.318;2022-12-18T01:27:57;-4.20;58.10
1337;DHT22;662;48.814;9.318;2022-12-18T01:30:23;-4.20;58.00
1337;DHT22;662;48.814;9.318;2022-12-18T01:32:49;-4.20;58.00
1337;DHT22;662;48.814;9.318;2022-12-18T01:35:14;-4.20;57.80
1337;DHT22;662;48.814;9.318;2022-12-18T01:37:40;-4.20;57.70
1337;DHT22;662;48.814;9.318;2022-12-18T01:40:06;-4.20;57.80
1337;DHT22;662;48.814;9.318;2022-12-18T01:42:32;-4.30;57.70
1337;DHT22;662;48.814;9.318;2022-12-18T01:45:26;-4.30;57.70
1337;DHT22;662;48.814;9.318;2022-12-18T01:48:01;-4.30;57.70
1337;DHT22;662;48.814;9.318;2022-12-18T01:50:40;-4.30;57.80
1337;DHT22;662;48.814;9.318;2022-12-18T01:53:16;-4.30;57.80
1337;DHT22;662;48.814;9.318;2022-12-18T01:55:49;-4.30;57.80
1337;DHT22;662;48.814;9.318;2022-12-18T01:58:18;-4.40;57.80
1337;DHT22;662;48.814;9.318;2022-12-18T02:00:43;-4.40;57.80
1337;DHT22;662;48.814;9.318;2022-12-18T02:03:12;-4.40;57.80
1337;DHT22;662;48.814;9.318;2022-12-18T02:05:47;-4.40;57.70
1337;DHT22;662;48.814;9.318;2022-12-18T02:19:06;-4.40;57.60
1337;DHT22;662;48.814;9.318;2022-12-18T02:21:51;-4.40;57.50
1337;DHT22;662;48.814;9.318;2022-12-18T02:25:16;-4.50;57.30
1337;DHT22;662;48.814;9.318;2022-12-18T02:27:21;-4.50;57.30
1337;DHT22;662;48.814;9.318;2022-12-18T02:29:52;-4.50;57.40
1337;DHT22;662;48.814;9.318;2022-12-18T02:32:32;-4.50;57.50
1337;DHT22;662;48.814;9.318;2022-12-18T02:34:59;-4.50;57.50
1337;DHT22;662;48.814;9.318;2022-12-18T02:37:27;-4.50;57.60
1337;DHT22;662;48.814;9.318;2022-12-18T02:39:55;-4.50;57.70
1337;DHT22;662;48.814;9.318;2022-12-18T02:42:22;-4.40;57.70
1337;DHT22;662;48.814;9.318;2022-12-18T02:44:50;-4.50;57.70
1337;DHT22;662;48.814;9.318;2022-12-18T02:47:23;-4.50;57.70
1337;DHT22;662;48.814;9.318;2022-12-18T02:50:02;-4.40;57.80
1337;DHT22;662;48.814;9.318;2022-12-18T03:06:58;-4.70;57.00
1337;DHT22;662;48.814;9.318;2022-12-18T03:09:36;-4.80;57.10
1337;DHT22;662;48.814;9.318;2022-12-18T03:15:24;-4.80;57.30
1337;DHT22;662;48.814;9.318;2022-12-18T03:17:46;-4.80;57.40
1337;DHT22;662;48.814;9.318;2022-12-18T03:20:17;-4.70;57.70
1337;DHT22;662;48.814;9.318;2022-12-18T03:22:45;-4.70;57.80
1337;DHT22;662;48.814;9.318;2022-12-18T03:25:13;-4.70;57.80
1337;DHT22;662;48.814;9.318;2022-12-18T03:27:45;-4.70;57.80
1337;DHT22;662;48.814;9.318;2022-12-18T03:30:13;-4.70;57.70
1337;DHT22;662;48.814;9.318;2022-12-18T03:35:36;-4.70;57.70
1337;DHT22;662;48.814;9.318;2022-12-18T03:38:03;-4.80;57.60
1337;DHT22;662;48.814;9.318;2022-12-18T03:43:16;-4.70;57.90
1337;DHT22;662;48.814;9.318;2022-12-18T03:45:54;-4.70;57.90
1337;DHT22;662;48.814;9.318;2022-12-18T03:55:48;-4.80;57.50
1337;DHT22;662;48.814;9.318;2022-12-18T03:58:17;-4.80;57.60
1337;DHT22;662;48.814;9.318;2022-12-18T04:00:44;-4.80;57.60
1337;DHT22;662;48.814;9.318;2022-12-18T04:03:10;-4.80;57.60
1337;DHT22;662;48.814;9.318;2022-12-18T04:05:37;-4.80;57.60
1337;DHT22;662;48.814;9.318;2022-12-18T04:08:04;-4.80;57.70
1337;DHT22;662;48.814;9.318;2022-12-18T04:10:30;-4.80;57.70
1337;DHT22;662;48.814;9.318;2022-12-18T04:12:57;-4.80;57.70
1337;DHT22;662;48.814;9.318;2022-12-18T04:15:23;-4.80;57.60
1337;DHT22;662;48.814;9.318;2022-12-18T04:17:49;-4.80;57.60
1337;DHT22;662;48.814;9.318;2022-12-18T04:20:16;-4.70;57.60
1337;DHT22;662;48.814;9.318;2022-12-18T04:22:42;-4.80;57.40
1337;DHT22;662;48.814;9.318;2022-12-18T04:25:08;-4.80;57.40
1337;DHT22;662;48.814;9.318;2022-12-18T04:27:34;-4.80;57.30
1337;DHT22;662;48.814;9.318;2022-12-18T04:30:00;-4.90;57.30
1337;DHT22;662;48.814;9.318;2022-12-18T04:32:26;-4.90;57.20
1337;DHT22;662;48.814;9.318;2022-12-18T04:34:51;-4.90;57.10
1337;DHT22;662;48.814;9.318;2022-12-18T04:37:17;-4.90;57.10
1337;DHT22;662;48.814;9.318;2022-12-18T04:39:43;-4.90;57.20
1337;DHT22;662;48.814;9.318;2022-12-18T04:42:08;-4.90;57.30
1337;DHT22;662;48.814;9.318;2022-12-18T04:44:34;-4.90;57.50
1337;DHT22;662;48.814;9.318;2022-12-18T04:47:01;-4.90;57.50
1337;DHT22;662;48.814;9.318;2022-12-18T04:49:26;-4.90;57.50
1337;DHT22;662;48.814;9.318;2022-12-18T04:51:52;-4.90;57.60
1337;DHT22;662;48.814;9.318;2022-12-18T04:54:18;-4.90;57.60
1337;DHT22;662;48.814;9.318;2022-12-18T04:56:44;-4.90;57.60
1337;DHT22;662;48.814;9.318;2022-12-18T04:59:09;-4.90;57.60
1337;DHT22;662;48.814;9.318;2022-12-18T05:01:35;-4.90;57.50
1337;DHT22;662;48.814;9.318;2022-12-18T05:04:01;-4.90;57.50
1337;DHT22;662;48.814;9.318;2022-12-18T05:06:27;-4.90;57.40
1337;DHT22;662;48.814;9.318;2022-12-18T05:08:53;-4.90;57.40
1337;DHT22;662;48.814;9.318;2022-12-18T05:11:18;-4.90;57.30
1337;DHT22;662;48.814;9.318;2022-12-18T05:13:45;-5.00;57.30
1337;DHT22;662;48.814;9.318;2022-12-18T05:16:11;-4.90;57.40
1337;DHT22;662;48.814;9.318;2022-12-18T05:18:37;-4.90;57.50
1337;DHT22;662;48.814;9.318;2022-12-18T05:21:03;-5.00;57.40
1337;DHT22;662;48.814;9.318;2022-12-18T05:23:29;-5.00;57.30
1337;DHT22;662;48.814;9.318;2022-12-18T05:26:01;-5.00;57.20
1337;DHT22;662;48.814;9.318;2022-12-18T05:28:29;-5.00;57.20
1337;DHT22;662;48.814;9.318;2022-12-18T05:30:57;-5.00;57.20
1337;DHT22;662;48.814;9.318;2022-12-18T05:33:24;-5.00;57.30
1337;DHT22;662;48.814;9.318;2022-12-18T05:35:51;-5.00;57.30
1337;DHT22;662;48.814;9.318;2022-12-18T05:38:18;-5.00;57.30
1337;DHT22;662;48.814;9.318;2022-12-18T05:40:43;-5.00;57.30
1337;DHT22;662;48.814;9.318;2022-12-18T05:43:10;-5.00;57.30
1337;DHT22;662;48.814;9.318;2022-12-18T05:45:38;-5.00;57.40
1337;DHT22;662;48.814;9.318;2022-12-18T05:48:06;-5.00;57.50
1337;DHT22;662;48.814;9.318;2022-12-18T05:50:40;-5.00;57.50
1337;DHT22;662;48.814;9.318;2022-12-18T05:53:07;-4.90;57.60
1337;DHT22;662;48.814;9.318;2022-12-18T05:55:37;-4.90;57.60
1337;DHT22;662;48.814;9.318;2022-12-18T05:58:04;-4.90;57.70
1337;DHT22;662;48.814;9.318;2022-12-18T06:00:31;-4.90;57.80
1337;DHT22;662;48.814;9.318;2022-12-18T06:02:58;-4.90;57.80
1337;DHT22;662;48.814;9.318;2022-12-18T06:05:24;-4.90;57.70
1337;DHT22;662;48.814;9.318;2022-12-18T06:07:50;-5.00;57.70
1337;DHT22;662;48.814;9.318;2022-12-18T06:10:16;-5.00;57.70
1337;DHT22;662;48.814;9.318;2022-12-18T06:12:42;-4.90;57.60
1337;DHT22;662;48.814;9.318;2022-12-18T06:15:08;-5.00;57.50
1337;DHT22;662;48.814;9.318;2022-12-18T06:17:34;-5.00;57.40
1337;DHT22;662;48.814;9.318;2022-12-18T06:20:00;-5.00;57.30
1337;DHT22;662;48.814;9.318;2022-12-18T06:22:26;-5.00;57.30
1337;DHT22;662;48.814;9.318;2022-12-18T06:24:52;-5.00;57.40
1337;DHT22;662;48.814;9.318;2022-12-18T06:27:18;-5.00;57.40
1337;DHT22;662;48.814;9.318;2022-12-18T06:29:43;-5.00;57.40
1337;DHT22;662;48.814;9.318;2022-12-18T06:32:09;-5.00;57.40
1337;DHT22;662;48.814;9.318;2022-12-18T06:34:37;-5.00;57.40
1337;DHT22;662;48.814;9.318;2022-12-18T06:37:03;-5.00;57.40
1337;DHT22;662;48.814;9.318;2022-12-18T06:39:29;-5.10;57.30
1337;DHT22;662;48.814;9.318;2022-12-18T06:41:55;-5.10;57.30
1337;DHT22;662;48.814;9.318;2022-12-18T06:44:20;-5.10;57.40
1337;DHT22;662;48.814;9.318;2022-12-18T06:46:46;-5.10;57.40
1337;DHT22;662;48.814;9.318;2022-12-18T06:49:12;-5.10;57.30
1337;DHT22;662;48.814;9.318;2022-12-18T06:51:38;-5.10;57.40
1337;DHT22;662;48.814;9.318;2022-12-18T06:54:03;-5.10;57.30
1337;DHT22;662;48.814;9.318;2022-12-18T06:56:29;-5.10;57.40
1337;DHT22;662;48.814;9.318;2022-12-18T06:58:55;-5.10;57.40
1337;DHT22;662;48.814;9.318;2022-12-18T07:01:21;-5.10;57.50
1337;DHT22;662;48.814;9.318;2022-12-18T07:03:47;-5.10;57.50
1337;DHT22;662;48.814;9.318;2022-12-18T07:06:19;-5.10;57.40
1337;DHT22;662;48.814;9.318;2022-12-18T07:08:45;-5.10;57.40
1337;DHT22;662;48.814;9.318;2022-12-18T07:11:12;-5.10;57.40
1337;DHT22;662;48.814;9.318;2022-12-18T07:13:37;-5.10;57.40
1337;DHT22;662;48.814;9.318;2022-12-18T07:16:10;-5.20;57.40
1337;DHT22;662;48.814;9.318;2022-12-18T07:18:36;-5.10;57.50
1337;DHT22;662;48.814;9.318;2022-12-18T07:21:04;-5.10;57.60
1337;DHT22;662;48.814;9.318;2022-12-18T07:23:30;-5.10;57.50
1337;DHT22;662;48.814;9.318;2022-12-18T07:25:55;-5.10;57.50
1337;DHT22;662;48.814;9.318;2022-12-18T07:28:21;-5.20;57.40
1337;DHT22;662;48.814;9.318;2022-12-18T07:30:46;-5.20;57.40
1337;DHT22;662;48.814;9.318;2022-12-18T07:33:12;-5.20;57.40
1337;DHT22;662;48.814;9.318;2022-12-18T07:35:38;-5.20;57.40
1337;DHT22;662;48.814;9.318;2022-12-18T07:38:03;-5.20;57.40
1337;DHT22;662;48.814;9.318;2022-12-18T07:40:29;-5.20;57.40
1337;DHT22;662;48.814;9.318;2022-12-18T07:42:54;-5.20;57.40
1337;DHT22;662;48.814;9.318;2022-12-18T07:45:20;-5.20;57.50
1337;DHT22;662;48.814;9.318;2022-12-18T07:47:45;-5.20;57.50
1337;DHT22;662;48.814;9.318;2022-12-18T07:50:11;-5.10;57.70
1337;DHT22;662;48.814;9.318;2022-12-18T07:52:37;-5.10;57.80
1337;DHT22;662;48.814;9.318;2022-12-18T07:55:02;-5.00;57.90
1337;DHT22;662;48.814;9.318;2022-12-18T07:57:28;-5.00;57.90
1337;DHT22;662;48.814;9.318;2022-12-18T07:59:54;-5.00;57.90
1337;DHT22;662;48.814;9.318;2022-12-18T08:02:19;-4.90;58.00
1337;DHT22;662;48.814;9.318;2022-12-18T08:04:45;-4.90;58.40
1337;DHT22;662;48.814;9.318;2022-12-18T08:07:11;-4.90;58.00
1337;DHT22;662;48.814;9.318;2022-12-18T08:09:36;-4.80;58.00
1337;DHT22;662;48.814;9.318;2022-12-18T08:12:02;-4.80;58.00
1337;DHT22;662;48.814;9.318;2022-12-18T08:14:28;-4.80;57.90
1337;DHT22;662;48.814;9.318;2022-12-18T08:16:53;-4.70;58.00
1337;DHT22;662;48.814;9.318;2022-12-18T08:19:19;-4.70;58.00
1337;DHT22;662;48.814;9.318;2022-12-18T08:21:44;-4.70;58.00
1337;DHT22;662;48.814;9.318;2022-12-18T08:24:11;-4.60;58.10
1337;DHT22;662;48.814;9.318;2022-12-18T08:26:37;-4.60;58.10
1337;DHT22;662;48.814;9.318;2022-12-18T08:29:02;-4.50;58.10
1337;DHT22;662;48.814;9.318;2022-12-18T08:31:29;-4.50;58.10
1337;DHT22;662;48.814;9.318;2022-12-18T08:33:55;-4.40;58.10
1337;DHT22;662;48.814;9.318;2022-12-18T08:36:22;-4.40;58.10
1337;DHT22;662;48.814;9.318;2022-12-18T08:38:48;-4.40;58.10
1337;DHT22;662;48.814;9.318;2022-12-18T08:41:15;-4.30;58.10
1337;DHT22;662;48.814;9.318;2022-12-18T08:43:41;-4.30;58.20
1337;DHT22;662;48.814;9.318;2022-12-18T08:46:32;-4.30;58.20
1337;DHT22;662;48.814;9.318;2022-12-18T08:48:57;-4.30;58.10
1337;DHT22;662;48.814;9.318;2022-12-18T08:51:23;-4.30;58.10
1337;DHT22;662;48.814;9.318;2022-12-18T08:53:49;-4.20;58.20
1337;DHT22;662;48.814;9.318;2022-12-18T08:56:15;-4.20;58.20
1337;DHT22;662;48.814;9.318;2022-12-18T08:58:41;-4.10;58.30
1337;DHT22;662;48.814;9.318;2022-12-18T09:01:09;-4.10;58.30
1337;DHT22;662;48.814;9.318;2022-12-18T09:03:35;-4.10;58.40
1337;DHT22;662;48.814;9.318;2022-12-18T09:06:01;-4.00;58.40
1337;DHT22;662;48.814;9.318;2022-12-18T09:08:27;-4.00;58.40
1337;DHT22;662;48.814;9.318;2022-12-18T09:10:54;-3.90;58.50
1337;DHT22;662;48.814;9.318;2022-12-18T09:13:21;-3.90;58.60
1337;DHT22;662;48.814;9.318;2022-12-18T09:15:55;-3.90;58.60
1337;DHT22;662;48.814;9.318;2022-12-18T09:18:22;-3.80;58.70
1337;DHT22;662;48.814;9.318;2022-12-18T09:20:48;-3.70;58.80
1337;DHT22;662;48.814;9.318;2022-12-18T09:23:15;-3.70;58.90
1337;DHT22;662;48.814;9.318;2022-12-18T09:25:41;-3.60;59.00
1337;DHT22;662;48.814;9.318;2022-12-18T09:28:14;-3.60;59.10
1337;DHT22;662;48.814;9.318;2022-12-18T09:30:42;-3.50;59.20
1337;DHT22;662;48.814;9.318;2022-12-18T09:33:08;-3.50;59.20
1337;DHT22;662;48.814;9.318;2022-12-18T09:35:36;-3.40;59.30
1337;DHT22;662;48.814;9.318;2022-12-18T09:38:02;-3.40;59.40
1337;DHT22;662;48.814;9.318;2022-12-18T09:40:34;-3.30;59.50
1337;DHT22;662;48.814;9.318;2022-12-18T09:43:04;-3.20;59.60
1337;DHT22;662;48.814;9.318;2022-12-18T09:45:45;-3.20;59.70
1337;DHT22;662;48.814;9.318;2022-12-18T09:48:25;-3.10;59.80
1337;DHT22;662;48.814;9.318;2022-12-18T09:50:55;-3.00;59.90
1337;DHT22;662;48.814;9.318;2022-12-18T09:53:29;-3.00;60.00
1337;DHT22;662;48.814;9.318;2022-12-18T09:55:56;-2.90;60.20
1337;DHT22;662;48.814;9.318;2022-12-18T09:58:30;-2.80;60.60
1337;DHT22;662;48.814;9.318;2022-12-18T10:00:56;-2.80;60.80
1337;DHT22;662;48.814;9.318;2022-12-18T10:03:22;-2.80;61.20
1337;DHT22;662;48.814;9.318;2022-12-18T10:08:46;-2.60;61.90
1337;DHT22;662;48.814;9.318;2022-12-18T10:11:34;-2.50;62.40
1337;DHT22;662;48.814;9.318;2022-12-18T10:20:10;-2.30;63.00
1337;DHT22;662;48.814;9.318;2022-12-18T10:28:13;-2.10;63.60
1337;DHT22;662;48.814;9.318;2022-12-18T10:30:41;-2.00;63.80
1337;DHT22;662;48.814;9.318;2022-12-18T10:33:13;-1.90;64.00
1337;DHT22;662;48.814;9.318;2022-12-18T10:35:41;-1.80;64.20
1337;DHT22;662;48.814;9.318;2022-12-18T10:43:29;-1.60;64.60
1337;DHT22;662;48.814;9.318;2022-12-18T10:51:29;-1.40;64.60
1337;DHT22;662;48.814;9.318;2022-12-18T10:56:40;-1.30;64.60
1337;DHT22;662;48.814;9.318;2022-12-18T10:59:07;-1.20;64.60
1337;DHT22;662;48.814;9.318;2022-12-18T11:01:53;-1.10;64.60
1337;DHT22;662;48.814;9.318;2022-12-18T11:04:31;-1.00;64.60
1337;DHT22;662;48.814;9.318;2022-12-18T11:07:00;-1.00;64.50
1337;DHT22;662;48.814;9.318;2022-12-18T11:09:31;-0.90;64.50
1337;DHT22;662;48.814;9.318;2022-12-18T11:11:59;-0.80;64.60
1337;DHT22;662;48.814;9.318;2022-12-18T11:14:42;-0.70;64.60
1337;DHT22;662;48.814;9.318;2022-12-18T11:17:22;-0.60;64.70
1337;DHT22;662;48.814;9.318;2022-12-18T11:20:00;-0.50;64.70
1337;DHT22;662;48.814;9.318;2022-12-18T11:22:29;-0.50;64.60
1337;DHT22;662;48.814;9.318;2022-12-18T11:25:07;-0.40;64.50
1337;DHT22;662;48.814;9.318;2022-12-18T11:27:48;-0.30;64.40
1337;DHT22;662;48.814;9.318;2022-12-18T11:30:33;-0.20;64.20
1337;DHT22;662;48.814;9.318;2022-12-18T11:33:07;-0.20;63.90
1337;DHT22;662;48.814;9.318;2022-12-18T11:40:43;-0.20;63.30
1337;DHT22;662;48.814;9.318;2022-12-18T11:43:21;-0.10;63.40
1337;DHT22;662;48.814;9.318;2022-12-18T11:46:05;-0.10;63.40
1337;DHT22;662;48.814;9.318;2022-12-18T11:48:49;0.00;63.50
1337;DHT22;662;48.814;9.318;2022-12-18T11:54:15;0.10;63.70
1337;DHT22;662;48.814;9.318;2022-12-18T11:56:55;0.10;63.60
1337;DHT22;662;48.814;9.318;2022-12-18T12:05:18;0.30;63.60
1337;DHT22;662;48.814;9.318;2022-12-18T12:13:05;0.50;63.40
1337;DHT22;662;48.814;9.318;2022-12-18T12:15:50;0.50;63.20
1337;DHT22;662;48.814;9.318;2022-12-18T12:21:41;0.50;63.10
1337;DHT22;662;48.814;9.318;2022-12-18T12:29:55;0.60;63.10
1337;DHT22;662;48.814;9.318;2022-12-18T12:40:26;0.90;63.20
1337;DHT22;662;48.814;9.318;2022-12-18T12:42:59;0.90;63.10
1337;DHT22;662;48.814;9.318;2022-12-18T12:46:00;0.90;62.90
1337;DHT22;662;48.814;9.318;2022-12-18T12:48:46;1.00;62.90
1337;DHT22;662;48.814;9.318;2022-12-18T12:51:21;1.10;63.00
1337;DHT22;662;48.814;9.318;2022-12-18T12:53:49;1.10;63.00
1337;DHT22;662;48.814;9.318;2022-12-18T12:56:17;1.20;62.90
1337;DHT22;662;48.814;9.318;2022-12-18T13:04:56;1.30;62.60
1337;DHT22;662;48.814;9.318;2022-12-18T13:07:32;1.40;62.50
1337;DHT22;662;48.814;9.318;2022-12-18T13:15:41;1.50;62.20
1337;DHT22;662;48.814;9.318;2022-12-18T13:20:46;1.50;61.90
1337;DHT22;662;48.814;9.318;2022-12-18T13:25:58;1.50;61.60
1337;DHT22;662;48.814;9.318;2022-12-18T13:31:00;1.60;61.60
1337;DHT22;662;48.814;9.318;2022-12-18T13:38:38;1.70;61.20
1337;DHT22;662;48.814;9.318;2022-12-18T13:41:21;1.60;60.90
1337;DHT22;662;48.814;9.318;2022-12-18T13:46:44;1.70;61.00
1337;DHT22;662;48.814;9.318;2022-12-18T13:51:43;1.60;60.80
1337;DHT22;662;48.814;9.318;2022-12-18T13:54:33;1.70;60.90
1337;DHT22;662;48.814;9.318;2022-12-18T13:57:00;1.70;60.90
1337;DHT22;662;48.814;9.318;2022-12-18T13:59:37;1.70;60.90
1337;DHT22;662;48.814;9.318;2022-12-18T14:02:16;1.60;60.80
1337;DHT22;662;48.814;9.318;2022-12-18T14:04:45;1.70;60.90
1337;DHT22;662;48.814;9.318;2022-12-18T14:09:44;1.60;61.50
1337;DHT22;662;48.814;9.318;2022-12-18T14:12:19;1.70;61.00
1337;DHT22;662;48.814;9.318;2022-12-18T14:15:09;1.70;61.00
1337;DHT22;662;48.814;9.318;2022-12-18T14:17:42;1.70;61.00
1337;DHT22;662;48.814;9.318;2022-12-18T14:20:14;1.60;60.90
1337;DHT22;662;48.814;9.318;2022-12-18T14:22:46;1.60;60.90
1337;DHT22;662;48.814;9.318;2022-12-18T14:27:46;1.60;60.90
1337;DHT22;662;48.814;9.318;2022-12-18T14:35:36;1.50;60.80
1337;DHT22;662;48.814;9.318;2022-12-18T14:38:25;1.50;60.80
1337;DHT22;662;48.814;9.318;2022-12-18T14:43:28;1.30;60.80
1337;DHT22;662;48.814;9.318;2022-12-18T14:45:55;1.30;60.90
1337;DHT22;662;48.814;9.318;2022-12-18T14:48:38;1.20;61.00
1337;DHT22;662;48.814;9.318;2022-12-18T14:53:42;1.10;61.10
1337;DHT22;662;48.814;9.318;2022-12-18T14:59:13;1.00;61.30
1337;DHT22;662;48.814;9.318;2022-12-18T15:02:23;1.00;61.50
1337;DHT22;662;48.814;9.318;2022-12-18T15:05:17;0.90;61.60
1337;DHT22;662;48.814;9.318;2022-12-18T15:07:50;0.80;61.90
1337;DHT22;662;48.814;9.318;2022-12-18T15:13:07;0.80;62.00
1337;DHT22;662;48.814;9.318;2022-12-18T15:18:04;0.60;62.00
1337;DHT22;662;48.814;9.318;2022-12-18T15:23:36;0.60;62.40
1337;DHT22;662;48.814;9.318;2022-12-18T15:26:07;0.50;62.50
1337;DHT22;662;48.814;9.318;2022-12-18T15:28:37;0.40;62.50
1337;DHT22;662;48.814;9.318;2022-12-18T15:31:17;0.40;62.70
1337;DHT22;662;48.814;9.318;2022-12-18T15:34:00;0.30;62.80
1337;DHT22;662;48.814;9.318;2022-12-18T15:36:28;0.30;62.90
1337;DHT22;662;48.814;9.318;2022-12-18T15:39:02;0.20;62.90
1337;DHT22;662;48.814;9.318;2022-12-18T15:41:28;0.20;63.10
1337;DHT22;662;48.814;9.318;2022-12-18T15:43:53;0.10;63.10
1337;DHT22;662;48.814;9.318;2022-12-18T15:46:21;0.10;63.20
1337;DHT22;662;48.814;9.318;2022-12-18T15:48:52;0.10;63.40
1337;DHT22;662;48.814;9.318;2022-12-18T15:51:27;0.10;63.40
1337;DHT22;662;48.814;9.318;2022-12-18T15:53:55;0.00;63.40
1337;DHT22;662;48.814;9.318;2022-12-18T15:56:21;0.00;63.50
1337;DHT22;662;48.814;9.318;2022-12-18T15:59:17;0.00;63.50
1337;DHT22;662;48.814;9.318;2022-12-18T16:01:45;0.00;63.50
1337;DHT22;662;48.814;9.318;2022-12-18T16:04:12;0.00;63.60
1337;DHT22;662;48.814;9.318;2022-12-18T16:06:39;0.00;63.60
1337;DHT22;662;48.814;9.318;2022-12-18T16:09:05;0.00;63.70
1337;DHT22;662;48.814;9.318;2022-12-18T16:11:32;0.00;63.70
1337;DHT22;662;48.814;9.318;2022-12-18T16:14:24;-0.10;63.60
1337;DHT22;662;48.814;9.318;2022-12-18T16:17:04;-0.10;63.60
1337;DHT22;662;48.814;9.318;2022-12-18T16:19:30;-0.10;63.60
1337;DHT22;662;48.814;9.318;2022-12-18T16:21:57;0.00;63.70
1337;DHT22;662;48.814;9.318;2022-12-18T16:24:29;-0.10;63.50
1337;DHT22;662;48.814;9.318;2022-12-18T16:26:56;-0.10;63.40
1337;DHT22;662;48.814;9.318;2022-12-18T16:29:23;-0.20;63.30
1337;DHT22;662;48.814;9.318;2022-12-18T16:31:52;-0.20;63.40
1337;DHT22;662;48.814;9.318;2022-12-18T16:36:49;-0.20;63.40
1337;DHT22;662;48.814;9.318;2022-12-18T16:39:15;-0.20;63.60
1337;DHT22;662;48.814;9.318;2022-12-18T16:41:41;-0.20;63.70
1337;DHT22;662;48.814;9.318;2022-12-18T16:44:07;-0.30;63.60
1337;DHT22;662;48.814;9.318;2022-12-18T16:46:32;-0.30;63.70
1337;DHT22;662;48.814;9.318;2022-12-18T16:48:58;-0.30;63.80
1337;DHT22;662;48.814;9.318;2022-12-18T16:51:26;-0.40;63.80
1337;DHT22;662;48.814;9.318;2022-12-18T16:53:52;-0.40;63.90
1337;DHT22;662;48.814;9.318;2022-12-18T16:56:19;-0.40;64.00
1337;DHT22;662;48.814;9.318;2022-12-18T16:58:50;-0.40;64.10
1337;DHT22;662;48.814;9.318;2022-12-18T17:01:15;-0.40;64.20
1337;DHT22;662;48.814;9.318;2022-12-18T17:03:41;-0.50;64.10
1337;DHT22;662;48.814;9.318;2022-12-18T17:06:07;-0.50;64.20
1337;DHT22;662;48.814;9.318;2022-12-18T17:08:33;-0.40;64.40
1337;DHT22;662;48.814;9.318;2022-12-18T17:11:06;-0.50;64.20
1337;DHT22;662;48.814;9.318;2022-12-18T17:13:32;-0.50;64.30
1337;DHT22;662;48.814;9.318;2022-12-18T17:16:05;-0.50;64.30
1337;DHT22;662;48.814;9.318;2022-12-18T17:18:31;-0.50;64.30
1337;DHT22;662;48.814;9.318;2022-12-18T17:21:00;-0.50;64.40
1337;DHT22;662;48.814;9.318;2022-12-18T17:23:27;-0.50;64.40
1337;DHT22;662;48.814;9.318;2022-12-18T17:25:54;-0.60;64.40
1337;DHT22;662;48.814;9.318;2022-12-18T17:28:22;-0.60;64.40
1337;DHT22;662;48.814;9.318;2022-12-18T17:30:47;-0.50;64.70
1337;DHT22;662;48.814;9.318;2022-12-18T17:33:13;-0.60;64.70
1337;DHT22;662;48.814;9.318;2022-12-18T17:35:39;-0.60;64.80
1337;DHT22;662;48.814;9.318;2022-12-18T17:38:04;-0.60;64.80
1337;DHT22;662;48.814;9.318;2022-12-18T17:40:32;-0.60;64.90
1337;DHT22;662;48.814;9.318;2022-12-18T17:42:57;-0.60;65.00
1337;DHT22;662;48.814;9.318;2022-12-18T17:45:24;-0.60;65.00
1337;DHT22;662;48.814;9.318;2022-12-18T17:47:50;-0.60;65.00
1337;DHT22;662;48.814;9.318;2022-12-18T17:50:15;-0.60;65.00
1337;DHT22;662;48.814;9.318;2022-12-18T17:52:41;-0.60;65.00
1337;DHT22;662;48.814;9.318;2022-12-18T17:55:07;-0.60;65.00
1337;DHT22;662;48.814;9.318;2022-12-18T17:57:33;-0.60;65.00
1337;DHT22;662;48.814;9.318;2022-12-18T17:59:59;-0.60;65.10
1337;DHT22;662;48.814;9.318;2022-12-18T18:02:24;-0.60;65.10
1337;DHT22;662;48.814;9.318;2022-12-18T18:04:50;-0.60;65.10
1337;DHT22;662;48.814;9.318;2022-12-18T18:07:15;-0.60;65.10
1337;DHT22;662;48.814;9.318;2022-12-18T18:09:41;-0.60;65.10
1337;DHT22;662;48.814;9.318;2022-12-18T18:12:07;-0.60;65.10
1337;DHT22;662;48.814;9.318;2022-12-18T18:14:51;-0.50;65.20
1337;DHT22;662;48.814;9.318;2022-12-18T18:17:17;-0.50;65.20
1337;DHT22;662;48.814;9.318;2022-12-18T18:19:42;-0.50;65.20
1337;DHT22;662;48.814;9.318;2022-12-18T18:22:09;-0.50;65.20
1337;DHT22;662;48.814;9.318;2022-12-18T18:24:35;-0.50;65.20
1337;DHT22;662;48.814;9.318;2022-12-18T18:27:00;-0.50;65.20
1337;DHT22;662;48.814;9.318;2022-12-18T18:29:27;-0.50;65.90
1337;DHT22;662;48.814;9.318;2022-12-18T18:31:55;-0.40;65.30
1337;DHT22;662;48.814;9.318;2022-12-18T18:34:23;-0.40;65.20
1337;DHT22;662;48.814;9.318;2022-12-18T18:36:49;-0.40;65.20
1337;DHT22;662;48.814;9.318;2022-12-18T18:39:15;-0.40;65.20
1337;DHT22;662;48.814;9.318;2022-12-18T18:41:40;-0.40;65.10
1337;DHT22;662;48.814;9.318;2022-12-18T18:44:07;-0.40;65.10
1337;DHT22;662;48.814;9.318;2022-12-18T18:46:33;-0.40;65.10
1337;DHT22;662;48.814;9.318;2022-12-18T18:48:59;-0.40;65.10
1337;DHT22;662;48.814;9.318;2022-12-18T18:51:24;-0.40;65.00
1337;DHT22;662;48.814;9.318;2022-12-18T18:53:51;-0.30;65.00
1337;DHT22;662;48.814;9.318;2022-12-18T18:56:19;-0.30;65.00
1337;DHT22;662;48.814;9.318;2022-12-18T18:58:45;-0.40;64.90
1337;DHT22;662;48.814;9.318;2022-12-18T19:01:19;-0.40;64.80
1337;DHT22;662;48.814;9.318;2022-12-18T19:03:46;-0.30;64.90
1337;DHT22;662;48.814;9.318;2022-12-18T19:06:18;-0.30;64.90
1337;DHT22;662;48.814;9.318;2022-12-18T19:08:45;-0.40;64.90
1337;DHT22;662;48.814;9.318;2022-12-18T19:11:11;-0.30;64.90
1337;DHT22;662;48.814;9.318;2022-12-18T19:13:57;-0.30;65.00
1337;DHT22;662;48.814;9.318;2022-12-18T19:16:23;-0.30;65.00
1337;DHT22;662;48.814;9.318;2022-12-18T19:18:49;-0.30;65.00
1337;DHT22;662;48.814;9.318;2022-12-18T19:21:14;-0.30;65.00